createdAt,value
2023-02-18T00:01:46.224Z,8.23
2023-02-18T00:04:15.931Z,8.08
2023-02-18T00:06:44.535Z,8.06
2023-02-18T00:09:13.308Z,8.19
2023-02-18T00:11:42.106Z,8.23
2023-02-18T00:14:15.002Z,8.35
2023-02-18T00:16:45.231Z,8.10
2023-02-18T00:19:17.942Z,7.96
2023-02-18T00:21:47.743Z,7.98
2023-02-18T00:24:17.951Z,7.95
2023-02-18T00:26:47.250Z,8.05
2023-02-18T00:29:15.823Z,8.08
2023-02-18T00:31:45.224Z,8.03
2023-02-18T00:34:15.863Z,8.18
2023-02-18T00:36:44.802Z,8.17
2023-02-18T00:39:14.031Z,8.12
2023-02-18T00:41:43.321Z,8.31
2023-02-18T00:44:13.416Z,8.15
2023-02-18T00:46:43.129Z,7.90
2023-02-18T00:49:11.678Z,8.09
2023-02-18T00:51:41.623Z,8.21
2023-02-18T00:54:11.257Z,8.14
2023-02-18T00:56:39.991Z,8.30
2023-02-18T00:59:08.442Z,8.26
2023-02-18T01:01:36.978Z,8.43
2023-02-18T01:04:05.857Z,8.31
2023-02-18T01:06:34.648Z,8.08
2023-02-18T01:09:06.794Z,8.13
2023-02-18T01:11:35.649Z,8.30
2023-02-18T01:14:04.153Z,8.25
2023-02-18T01:16:32.532Z,8.38
2023-02-18T01:19:00.888Z,8.32
2023-02-18T01:21:31.091Z,8.35
2023-02-18T01:23:59.477Z,8.39
2023-02-18T01:26:29.295Z,8.27
2023-02-18T01:28:57.695Z,8.12
2023-02-18T01:31:26.329Z,8.28
2023-02-18T01:33:55.060Z,8.18
2023-02-18T01:36:26.425Z,8.42
2023-02-18T01:38:57.778Z,8.27
2023-02-18T01:41:26.181Z,8.34
2023-02-18T01:44:19.593Z,8.10
2023-02-18T01:46:49.189Z,8.35
2023-02-18T01:49:21.945Z,8.22
2023-02-18T01:51:54.228Z,8.39
2023-02-18T01:54:28.647Z,8.52
2023-02-18T01:57:02.662Z,8.66
2023-02-18T01:59:39.153Z,8.64
2023-02-18T02:02:12.143Z,8.55
2023-02-18T02:04:41.671Z,8.60
2023-02-18T02:07:11.553Z,8.54
2023-02-18T02:09:42.848Z,8.46
2023-02-18T02:12:43.332Z,8.49
2023-02-18T02:15:37.496Z,8.52
2023-02-18T02:18:22.468Z,8.66
2023-02-18T02:21:40.494Z,8.57
2023-02-18T02:25:04.146Z,8.51
2023-02-18T02:28:06.716Z,8.48
2023-02-18T02:31:13.815Z,8.33
2023-02-18T02:34:30.371Z,8.35
2023-02-18T02:37:10.504Z,8.31
2023-02-18T02:39:53.354Z,8.31
2023-02-18T02:42:35.901Z,8.35
2023-02-18T02:45:12.961Z,8.18
2023-02-18T02:47:50.707Z,8.42
2023-02-18T02:50:27.638Z,8.23
2023-02-18T02:53:01.526Z,8.37
2023-02-18T02:55:29.885Z,8.19
2023-02-18T02:57:58.927Z,8.39
2023-02-18T03:00:44.007Z,8.39
2023-02-18T03:03:33.047Z,8.44
2023-02-18T03:06:58.583Z,8.03
2023-02-18T03:09:43.556Z,8.22
2023-02-18T03:12:24.297Z,8.14
2023-02-18T03:15:00.854Z,7.93
2023-02-18T03:17:36.126Z,8.05
2023-02-18T03:20:17.606Z,8.03
2023-02-18T03:22:50.456Z,8.08
2023-02-18T03:25:22.155Z,8.15
2023-02-18T03:27:54.461Z,8.19
2023-02-18T03:30:29.109Z,8.18
2023-02-18T03:33:04.969Z,8.14
2023-02-18T03:35:33.741Z,8.09
2023-02-18T03:38:13.293Z,8.31
2023-02-18T03:40:42.048Z,8.14
2023-02-18T03:43:10.726Z,8.04
2023-02-18T03:45:40.538Z,7.69
2023-02-18T03:48:09.930Z,7.86
2023-02-18T03:50:38.409Z,7.95
2023-02-18T03:53:08.660Z,7.92
2023-02-18T03:55:38.838Z,8.00
2023-02-18T03:58:07.303Z,7.99
2023-02-18T04:00:35.822Z,7.87
2023-02-18T04:03:04.330Z,7.87
2023-02-18T04:05:32.792Z,7.88
2023-02-18T04:08:01.148Z,7.91
2023-02-18T04:10:30.925Z,7.70
2023-02-18T04:12:59.707Z,7.80
2023-02-18T04:15:28.225Z,7.73
2023-02-18T04:17:56.695Z,7.83
2023-02-18T04:20:25.221Z,7.86
2023-02-18T04:22:53.597Z,7.71
2023-02-18T04:25:22.307Z,7.78
2023-02-18T04:27:52.103Z,7.79
2023-02-18T04:30:20.831Z,7.70
2023-02-18T04:32:49.340Z,7.33
2023-02-18T04:35:18.216Z,7.46
2023-02-18T04:37:46.698Z,7.67
2023-02-18T04:40:15.936Z,7.69
2023-02-18T04:42:44.266Z,7.38
2023-02-18T04:45:13.991Z,7.78
2023-02-18T04:47:42.695Z,7.80
2023-02-18T04:50:12.307Z,7.64
2023-02-18T04:52:42.807Z,7.65
2023-02-18T04:55:11.178Z,7.53
2023-02-18T04:57:39.826Z,7.58
2023-02-18T05:00:11.437Z,7.60
2023-02-18T05:02:41.166Z,7.61
2023-02-18T05:05:10.095Z,7.59
2023-02-18T05:07:38.726Z,7.36
2023-02-18T05:10:09.216Z,7.50
2023-02-18T05:12:40.821Z,7.53
2023-02-18T05:15:10.681Z,7.57
2023-02-18T05:17:41.050Z,7.44
2023-02-18T05:20:10.615Z,7.58
2023-02-18T05:22:39.109Z,7.54
2023-02-18T05:25:08.639Z,7.55
2023-02-18T05:27:38.234Z,7.57
2023-02-18T05:30:08.520Z,7.56
2023-02-18T05:32:37.563Z,7.57
2023-02-18T05:35:08.951Z,7.37
2023-02-18T05:37:38.698Z,7.39
2023-02-18T05:40:09.423Z,7.48
2023-02-18T05:42:37.985Z,7.44
2023-02-18T05:45:07.013Z,7.23
2023-02-18T05:47:35.959Z,7.06
2023-02-18T05:50:04.988Z,7.24
2023-02-18T05:52:35.311Z,7.20
2023-02-18T05:55:04.128Z,7.16
2023-02-18T05:57:32.704Z,7.23
2023-02-18T06:00:01.032Z,7.19
2023-02-18T06:02:29.359Z,7.16
2023-02-18T06:04:57.975Z,7.21
2023-02-18T06:07:26.380Z,7.20
2023-02-18T06:09:56.364Z,7.28
2023-02-18T06:12:24.768Z,7.12
2023-02-18T06:14:53.360Z,7.02
2023-02-18T06:17:22.730Z,7.14
2023-02-18T06:19:51.148Z,7.02
2023-02-18T06:22:19.489Z,7.04
2023-02-18T06:24:48.006Z,6.89
2023-02-18T06:27:17.830Z,6.91
2023-02-18T06:29:46.201Z,7.04
2023-02-18T06:32:14.705Z,7.06
2023-02-18T06:34:44.825Z,6.95
2023-02-18T06:37:13.546Z,7.00
2023-02-18T06:39:44.809Z,7.02
2023-02-18T06:42:13.275Z,6.94
2023-02-18T06:44:43.476Z,7.05
2023-02-18T06:47:11.916Z,6.92
2023-02-18T06:49:40.206Z,7.10
2023-02-18T06:52:08.609Z,6.99
2023-02-18T06:54:38.589Z,6.75
2023-02-18T06:57:07.100Z,7.06
2023-02-18T06:59:35.909Z,6.69
2023-02-18T07:02:05.759Z,6.87
2023-02-18T07:04:34.136Z,6.84
2023-02-18T07:07:02.692Z,6.59
2023-02-18T07:09:31.255Z,6.90
2023-02-18T07:11:59.927Z,6.82
2023-02-18T07:14:28.530Z,6.47
2023-02-18T07:16:56.857Z,6.44
2023-02-18T07:19:26.533Z,6.63
2023-02-18T07:21:57.639Z,6.64
2023-02-18T07:24:26.144Z,6.69
2023-02-18T07:26:54.570Z,6.70
2023-02-18T07:29:23.044Z,6.38
2023-02-18T07:31:51.610Z,6.75
2023-02-18T07:34:20.048Z,6.59
2023-02-18T07:36:50.006Z,6.74
2023-02-18T07:39:20.807Z,6.72
2023-02-18T07:41:49.417Z,6.72
2023-02-18T07:44:18.203Z,6.70
2023-02-18T07:46:48.205Z,6.74
2023-02-18T07:49:20.138Z,6.70
2023-02-18T07:51:50.649Z,6.92
2023-02-18T07:54:19.323Z,6.98
2023-02-18T07:56:48.277Z,6.64
2023-02-18T07:59:17.956Z,6.86
2023-02-18T08:01:48.562Z,7.00
2023-02-18T08:04:17.138Z,6.89
2023-02-18T08:06:50.782Z,6.82
2023-02-18T08:09:20.377Z,6.90
2023-02-18T08:11:49.330Z,6.93
2023-02-18T08:14:18.236Z,7.03
2023-02-18T08:16:48.224Z,7.11
2023-02-18T08:19:17.979Z,6.59
2023-02-18T08:21:46.418Z,7.12
2023-02-18T08:24:16.405Z,7.16
2023-02-18T08:26:59.380Z,6.98
2023-02-18T08:29:29.711Z,7.29
2023-02-18T08:31:59.542Z,7.10
2023-02-18T08:34:28.113Z,7.04
2023-02-18T08:36:56.435Z,6.46
2023-02-18T08:39:26.184Z,6.99
2023-02-18T08:41:54.853Z,6.99
2023-02-18T08:44:23.186Z,7.13
2023-02-18T08:46:52.690Z,7.05
2023-02-18T08:49:24.344Z,7.11
2023-02-18T08:51:53.136Z,7.03
2023-02-18T08:54:21.811Z,6.98
2023-02-18T08:56:54.960Z,6.79
2023-02-18T08:59:23.416Z,6.71
2023-02-18T09:01:51.937Z,6.92
2023-02-18T09:04:21.333Z,6.77
2023-02-18T09:06:50.294Z,6.90
2023-02-18T09:09:19.314Z,6.80
2023-02-18T09:11:47.842Z,6.98
2023-02-18T09:14:17.858Z,6.89
2023-02-18T09:16:46.352Z,6.82
2023-02-18T09:19:14.903Z,7.01
2023-02-18T09:21:44.235Z,7.04
2023-02-18T09:24:12.920Z,6.87
2023-02-18T09:26:41.546Z,7.07
2023-02-18T09:29:10.877Z,7.15
2023-02-18T09:31:43.220Z,7.28
2023-02-18T09:34:11.575Z,7.21
2023-02-18T09:36:42.915Z,7.27
2023-02-18T09:39:12.982Z,7.27
2023-02-18T09:41:46.649Z,7.13
2023-02-18T09:44:22.463Z,7.15
2023-02-18T09:46:56.947Z,7.38
2023-02-18T09:49:28.821Z,7.43
2023-02-18T09:52:01.825Z,7.33
2023-02-18T09:54:30.532Z,7.43
2023-02-18T09:57:00.918Z,7.35
2023-02-18T09:59:31.281Z,7.35
2023-02-18T10:02:02.888Z,7.22
2023-02-18T10:04:48.515Z,7.40
2023-02-18T10:07:28.327Z,7.22
2023-02-18T10:10:01.268Z,7.46
2023-02-18T10:12:35.056Z,7.31
2023-02-18T10:15:04.037Z,7.45
2023-02-18T10:17:35.014Z,7.41
2023-02-18T10:20:08.004Z,7.52
2023-02-18T10:22:39.570Z,7.59
2023-02-18T10:25:09.434Z,7.50
2023-02-18T10:27:42.095Z,7.53
2023-02-18T10:30:25.397Z,7.55
2023-02-18T10:33:02.590Z,7.60
2023-02-18T10:35:39.635Z,7.70
2023-02-18T10:38:17.652Z,7.82
2023-02-18T10:41:00.103Z,8.01
2023-02-18T10:43:40.317Z,7.94
2023-02-18T10:46:23.863Z,7.94
2023-02-18T10:49:10.836Z,7.95
2023-02-18T10:51:48.849Z,8.28
2023-02-18T10:54:17.476Z,8.24
2023-02-18T10:56:50.660Z,8.31
2023-02-18T10:59:24.280Z,8.20
2023-02-18T11:01:59.915Z,8.41
2023-02-18T11:04:39.552Z,8.38
2023-02-18T11:07:14.452Z,8.25
2023-02-18T11:09:49.111Z,8.28
2023-02-18T11:12:25.701Z,8.27
2023-02-18T11:15:17.413Z,8.08
2023-02-18T11:17:48.456Z,8.26
2023-02-18T11:20:33.501Z,8.34
2023-02-18T11:23:20.080Z,8.12
2023-02-18T11:25:59.143Z,8.21
2023-02-18T11:28:44.692Z,8.37
2023-02-18T11:31:22.669Z,8.44
2023-02-18T11:33:54.983Z,8.64
2023-02-18T11:36:30.983Z,8.71
2023-02-18T11:39:04.481Z,8.63
2023-02-18T11:41:37.301Z,8.57
2023-02-18T11:44:19.185Z,9.01
2023-02-18T11:47:01.796Z,9.34
2023-02-18T11:49:32.147Z,9.32
2023-02-18T11:52:18.301Z,8.88
2023-02-18T11:55:02.847Z,8.74
2023-02-18T11:57:32.643Z,8.88
2023-02-18T12:00:02.288Z,8.98
2023-02-18T12:02:40.795Z,8.93
2023-02-18T12:05:17.430Z,9.16
2023-02-18T12:07:50.749Z,8.95
2023-02-18T12:10:29.337Z,8.93
2023-02-18T12:13:07.127Z,8.95
2023-02-18T12:16:05.233Z,8.77
2023-02-18T12:18:51.534Z,8.99
2023-02-18T12:21:43.279Z,9.00
2023-02-18T12:24:48.613Z,8.89
2023-02-18T12:27:25.967Z,8.87
2023-02-18T12:30:24.492Z,8.76
2023-02-18T12:33:00.691Z,9.07
2023-02-18T12:36:01.344Z,8.70
2023-02-18T12:39:02.697Z,8.65
2023-02-18T12:41:56.827Z,8.99
2023-02-18T12:44:45.161Z,9.07
2023-02-18T12:47:40.845Z,8.99
2023-02-18T12:50:45.839Z,9.34
2023-02-18T12:53:50.221Z,9.09
2023-02-18T12:56:53.606Z,9.21
2023-02-18T12:59:57.799Z,9.07
2023-02-18T13:02:49.614Z,9.27
2023-02-18T13:05:33.127Z,9.45
2023-02-18T13:08:20.184Z,9.56
2023-02-18T13:11:25.871Z,9.59
2023-02-18T13:14:12.352Z,9.41
2023-02-18T13:16:42.640Z,9.21
2023-02-18T13:19:22.196Z,9.12
2023-02-18T13:21:54.472Z,9.38
2023-02-18T13:24:32.399Z,9.48
2023-02-18T13:27:14.568Z,9.70
2023-02-18T13:29:54.634Z,9.79
2023-02-18T13:32:32.695Z,9.75
2023-02-18T13:35:18.055Z,9.57
2023-02-18T13:38:12.071Z,9.61
2023-02-18T13:40:42.012Z,9.75
2023-02-18T13:43:29.862Z,9.58
2023-02-18T13:46:11.026Z,9.66
2023-02-18T13:48:46.992Z,9.50
2023-02-18T13:51:18.381Z,9.52
2023-02-18T13:53:53.439Z,9.73
2023-02-18T13:56:27.993Z,9.63
2023-02-18T13:59:02.390Z,9.54
2023-02-18T14:01:44.741Z,9.60
2023-02-18T14:04:54.056Z,9.85
2023-02-18T14:07:48.505Z,9.80
2023-02-18T14:10:34.758Z,9.97
2023-02-18T14:13:25.744Z,9.77
2023-02-18T14:16:00.360Z,10.03
2023-02-18T14:19:02.263Z,9.87
2023-02-18T14:21:41.374Z,9.81
2023-02-18T14:24:13.129Z,9.73
2023-02-18T14:26:46.928Z,9.81
2023-02-18T14:29:30.232Z,9.51
2023-02-18T14:32:05.067Z,9.61
2023-02-18T14:35:24.503Z,9.81
2023-02-18T14:38:32.080Z,9.82
2023-02-18T14:41:26.272Z,9.63
2023-02-18T14:44:39.524Z,9.70
2023-02-18T14:47:26.067Z,9.66
2023-02-18T14:49:58.033Z,9.24
2023-02-18T14:52:34.216Z,9.31
2023-02-18T14:55:06.361Z,9.11
2023-02-18T14:57:42.342Z,9.22
2023-02-18T15:00:19.299Z,9.32
2023-02-18T15:02:50.691Z,9.32
2023-02-18T15:05:22.663Z,9.51
2023-02-18T15:08:17.821Z,9.57
2023-02-18T15:10:52.343Z,9.62
2023-02-18T15:13:24.936Z,9.57
2023-02-18T15:15:56.598Z,9.60
2023-02-18T15:18:34.702Z,9.36
2023-02-18T15:21:03.989Z,9.21
2023-02-18T15:23:38.324Z,9.23
2023-02-18T15:26:09.952Z,9.22
2023-02-18T15:28:44.547Z,9.16
2023-02-18T15:31:15.263Z,9.09
2023-02-18T15:33:45.617Z,9.35
2023-02-18T15:36:16.448Z,8.80
2023-02-18T15:38:46.207Z,9.07
2023-02-18T15:41:18.044Z,8.99
2023-02-18T15:43:56.201Z,9.03
2023-02-18T15:46:26.471Z,8.86
2023-02-18T15:48:57.360Z,8.83
2023-02-18T15:51:30.573Z,8.83
2023-02-18T15:54:03.770Z,8.77
2023-02-18T15:56:37.053Z,8.90
2023-02-18T15:59:18.627Z,9.13
2023-02-18T16:01:51.673Z,8.92
2023-02-18T16:04:22.443Z,9.08
2023-02-18T16:06:54.000Z,8.90
2023-02-18T16:09:28.312Z,8.97
2023-02-18T16:12:00.397Z,8.96
2023-02-18T16:14:32.799Z,8.75
2023-02-18T16:17:17.694Z,8.61
2023-02-18T16:20:08.027Z,9.01
2023-02-18T16:22:44.336Z,8.74
2023-02-18T16:25:22.987Z,8.85
2023-02-18T16:27:55.745Z,8.55
2023-02-18T16:30:27.163Z,8.68
2023-02-18T16:32:55.775Z,8.82
2023-02-18T16:35:27.806Z,8.79
2023-02-18T16:37:57.789Z,8.71
2023-02-18T16:40:45.672Z,8.48
2023-02-18T16:43:16.882Z,8.65
2023-02-18T16:45:49.721Z,8.75
2023-02-18T16:48:25.299Z,8.78
2023-02-18T16:50:56.340Z,8.69
2023-02-18T16:53:24.942Z,8.70
2023-02-18T16:55:54.705Z,8.66
2023-02-18T16:58:23.224Z,8.72
2023-02-18T17:00:53.224Z,8.60
2023-02-18T17:03:22.441Z,8.81
2023-02-18T17:05:50.921Z,8.76
2023-02-18T17:08:23.388Z,8.92
2023-02-18T17:10:55.410Z,8.81
2023-02-18T17:13:25.603Z,8.84
2023-02-18T17:15:56.388Z,8.88
2023-02-18T17:18:27.953Z,9.02
2023-02-18T17:20:57.145Z,8.99
2023-02-18T17:23:26.225Z,8.87
2023-02-18T17:25:56.223Z,8.89
2023-02-18T17:28:24.618Z,8.94
2023-02-18T17:30:58.256Z,9.06
2023-02-18T17:33:27.224Z,8.77
2023-02-18T17:35:55.775Z,8.80
2023-02-18T17:38:25.258Z,8.86
2023-02-18T17:40:55.122Z,8.36
2023-02-18T17:43:25.302Z,8.93
2023-02-18T17:45:55.678Z,8.98
2023-02-18T17:48:24.562Z,8.80
2023-02-18T17:50:54.265Z,8.72
2023-02-18T17:53:23.544Z,8.83
2023-02-18T17:55:52.355Z,8.66
2023-02-18T17:58:22.275Z,8.67
2023-02-18T18:00:53.358Z,8.70
2023-02-18T18:03:22.648Z,8.64
2023-02-18T18:05:54.516Z,8.70
2023-02-18T18:08:23.105Z,8.59
2023-02-18T18:10:54.932Z,8.56
2023-02-18T18:13:28.324Z,8.51
2023-02-18T18:15:58.222Z,8.67
2023-02-18T18:18:27.506Z,8.64
2023-02-18T18:20:59.833Z,8.64
2023-02-18T18:23:29.525Z,8.66
2023-02-18T18:26:00.284Z,8.63
2023-02-18T18:28:32.981Z,8.81
2023-02-18T18:31:02.655Z,8.94
2023-02-18T18:33:34.101Z,8.84
2023-02-18T18:36:03.323Z,8.57
2023-02-18T18:38:31.970Z,8.74
2023-02-18T18:41:00.889Z,8.72
2023-02-18T18:43:35.783Z,8.80
2023-02-18T18:46:04.397Z,8.75
2023-02-18T18:48:32.823Z,8.78
2023-02-18T18:51:02.360Z,8.75
2023-02-18T18:53:33.409Z,8.78
2023-02-18T18:56:04.865Z,8.59
2023-02-18T18:58:35.232Z,8.62
2023-02-18T19:01:07.113Z,8.51
2023-02-18T19:03:37.657Z,8.55
2023-02-18T19:06:06.899Z,8.63
2023-02-18T19:08:35.661Z,8.55
2023-02-18T19:11:04.739Z,8.72
2023-02-18T19:13:36.151Z,8.73
2023-02-18T19:16:09.800Z,8.49
2023-02-18T19:18:38.699Z,8.57
2023-02-18T19:21:08.351Z,8.64
2023-02-18T19:23:37.438Z,8.52
2023-02-18T19:26:06.537Z,8.65
2023-02-18T19:28:37.416Z,8.47
2023-02-18T19:31:11.037Z,8.51
2023-02-18T19:33:40.190Z,8.42
2023-02-18T19:36:11.126Z,8.53
2023-02-18T19:38:40.190Z,8.48
2023-02-18T19:41:10.472Z,8.53
2023-02-18T19:43:42.076Z,8.46
2023-02-18T19:46:11.848Z,8.30
2023-02-18T19:48:41.037Z,8.26
2023-02-18T19:51:10.937Z,8.28
2023-02-18T19:53:39.744Z,8.29
2023-02-18T19:56:09.241Z,8.30
2023-02-18T19:58:41.080Z,8.46
2023-02-18T20:01:13.089Z,8.46
2023-02-18T20:03:42.092Z,8.53
2023-02-18T20:06:17.205Z,8.42
2023-02-18T20:08:46.170Z,8.29
2023-02-18T20:11:14.760Z,8.37
2023-02-18T20:13:45.051Z,8.28
2023-02-18T20:16:13.898Z,8.18
2023-02-18T20:18:42.786Z,8.20
2023-02-18T20:21:12.677Z,8.18
2023-02-18T20:23:41.486Z,8.19
2023-02-18T20:26:11.118Z,8.45
2023-02-18T20:28:39.677Z,8.37
2023-02-18T20:31:12.406Z,8.37
2023-02-18T20:33:42.533Z,8.37
2023-02-18T20:36:15.042Z,8.26
2023-02-18T20:38:44.102Z,8.40
2023-02-18T20:41:17.906Z,8.39
2023-02-18T20:43:46.660Z,8.36
2023-02-18T20:46:20.850Z,7.99
2023-02-18T20:48:49.527Z,8.43
2023-02-18T20:51:21.117Z,8.37
2023-02-18T20:53:51.046Z,8.24
2023-02-18T20:56:22.371Z,8.11
2023-02-18T20:58:51.911Z,8.15
2023-02-18T21:01:21.985Z,8.19
2023-02-18T21:03:50.887Z,8.10
2023-02-18T21:06:22.879Z,8.19
2023-02-18T21:08:55.208Z,8.12
2023-02-18T21:11:26.808Z,7.98
2023-02-18T21:13:57.746Z,8.06
2023-02-18T21:16:29.808Z,7.86
2023-02-18T21:18:58.458Z,8.04
2023-02-18T21:21:27.846Z,7.96
2023-02-18T21:23:56.469Z,7.97
2023-02-18T21:26:28.344Z,7.99
2023-02-18T21:28:58.530Z,7.93
2023-02-18T21:31:31.831Z,7.84
2023-02-18T21:34:00.434Z,7.89
2023-02-18T21:36:31.553Z,7.83
2023-02-18T21:39:02.482Z,7.84
2023-02-18T21:41:32.236Z,7.86
2023-02-18T21:44:00.935Z,8.10
2023-02-18T21:46:33.512Z,8.11
2023-02-18T21:49:09.744Z,8.12
2023-02-18T21:52:02.014Z,8.23
2023-02-18T21:54:33.660Z,8.12
2023-02-18T21:57:04.931Z,8.16
2023-02-18T21:59:36.065Z,8.05
2023-02-18T22:02:09.946Z,8.13
2023-02-18T22:04:41.586Z,8.09
2023-02-18T22:07:10.603Z,8.06
2023-02-18T22:09:39.414Z,8.19
2023-02-18T22:12:08.380Z,8.09
2023-02-18T22:14:36.911Z,8.14
2023-02-18T22:17:07.026Z,7.90
2023-02-18T22:19:35.732Z,7.95
2023-02-18T22:22:04.710Z,7.78
2023-02-18T22:24:34.107Z,7.94
2023-02-18T22:27:03.098Z,7.97
2023-02-18T22:29:33.276Z,8.03
2023-02-18T22:32:02.541Z,8.24
2023-02-18T22:34:32.781Z,8.06
2023-02-18T22:37:01.403Z,8.17
2023-02-18T22:39:30.179Z,7.94
2023-02-18T22:41:58.874Z,7.92
2023-02-18T22:44:27.790Z,8.12
2023-02-18T22:46:57.632Z,8.14
2023-02-18T22:49:27.188Z,7.97
2023-02-18T22:51:57.063Z,7.80
2023-02-18T22:54:25.538Z,7.80
2023-02-18T22:56:55.393Z,7.83
2023-02-18T22:59:24.332Z,7.74
2023-02-18T23:01:53.845Z,7.86
2023-02-18T23:04:22.613Z,7.76
2023-02-18T23:06:51.789Z,7.68
2023-02-18T23:09:25.047Z,7.66
2023-02-18T23:11:56.371Z,7.70
2023-02-18T23:14:25.939Z,7.57
2023-02-18T23:17:17.788Z,7.55
2023-02-18T23:19:49.140Z,7.49
2023-02-18T23:22:20.195Z,7.54
2023-02-18T23:24:50.236Z,7.46
2023-02-18T23:27:19.664Z,7.56
2023-02-18T23:29:48.398Z,7.45
2023-02-18T23:32:17.000Z,7.50
2023-02-18T23:34:45.766Z,7.66
2023-02-18T23:37:14.385Z,7.45
2023-02-18T23:39:45.362Z,7.57
2023-02-18T23:42:15.325Z,7.41
2023-02-18T23:44:44.144Z,7.47
2023-02-18T23:47:13.005Z,7.57
2023-02-18T23:49:41.599Z,7.16
2023-02-18T23:52:10.012Z,7.38
2023-02-18T23:54:38.519Z,7.35
2023-02-18T23:57:06.961Z,7.44
2023-02-18T23:59:37.734Z,7.50
